Погода Итингана неделю

Минас-Жерайс, Бразилия

22 - 28 июля
  • 22июля
    Сегодня
    +13°
    +30°
    Ясно и безоблачно
    ВремяПогодаТемператураВлажностьДавлениеВетер, м/сВероятность осадков
    00:00Практически безоблачно+18°C84 %730 мм1.4 м/с19 %
    03:00Практически безоблачно+18°C90 %729 мм0.9 м/с31 %
    06:00Практически безоблачно+17°C92 %730 мм0.9 м/с29 %
    09:00Практически безоблачно+22°C66 %731 мм2.2 м/с41 %
    12:00Ясно и безоблачно+28°C41 %730 мм1.5 м/с22 %
    15:00Ясно и безоблачно+29°C32 %729 мм1.7 м/с5 %
    18:00Ясно и безоблачно+24°C44 %729 мм2.8 м/с5 %
    21:00Ясно и безоблачно+22°C60 %730 мм1.2 м/с5 %
  • 23июля
    Вторник
    +13°
    +29°
    Ясно и безоблачно
    ВремяПогодаТемператураВлажностьДавлениеВетер, м/сВероятность осадков
    00:00Ясно и безоблачно+16°C73 %729 мм0.8 м/с5 %
    03:00Ясно и безоблачно+14°C83 %729 мм1.1 м/с5 %
    06:00Ясно и безоблачно+14°C91 %729 мм0.9 м/с5 %
    09:00Ясно и безоблачно+20°C63 %732 мм1.5 м/с5 %
    12:00Ясно и безоблачно+27°C38 %730 мм2.2 м/с5 %
    15:00Ясно и безоблачно+29°C34 %729 мм3.3 м/с5 %
    18:00Ясно и безоблачно+23°C46 %729 мм2.6 м/с5 %
    21:00Ясно и безоблачно+22°C58 %731 мм1.9 м/с5 %
  • 24июля
    Среда
    +13°
    +28°
    Ясно и безоблачно
    ВремяПогодаТемператураВлажностьДавлениеВетер, м/сВероятность осадков
    00:00Ясно и безоблачно+17°C69 %731 мм2.5 м/с5 %
    03:00Ясно и безоблачно+14°C85 %730 мм0.8 м/с5 %
    06:00Ясно и безоблачно+13°C90 %730 мм0.5 м/с5 %
    09:00Небольшая облачность+20°C57 %732 мм2.5 м/с5 %
    12:00Ясно и безоблачно+26°C37 %732 мм2.8 м/с5 %
    15:00Ясно и безоблачно+28°C34 %730 мм2.4 м/с5 %
    18:00Практически безоблачно+23°C45 %730 мм3.3 м/с5 %
    21:00Облачно с прояснениями+21°C61 %731 мм1.3 м/с5 %
  • 25июля
    Четверг
    +12°
    +29°
    Ясно и безоблачно
    ВремяПогодаТемператураВлажностьДавлениеВетер, м/сВероятность осадков
    00:00Небольшая облачность+16°C75 %731 мм1.8 м/с5 %
    03:00Облачно с прояснениями+15°C88 %730 мм0.9 м/с5 %
    06:00Облачно с прояснениями+14°C93 %730 мм0.6 м/с5 %
    09:00Небольшая облачность+20°C62 %732 мм1.1 м/с5 %
    12:00Практически безоблачно+27°C33 %730 мм1.6 м/с5 %
    15:00Ясно и безоблачно+28°C31 %728 мм2.0 м/с5 %
    18:00Ясно и безоблачно+24°C40 %728 мм2.2 м/с5 %
    21:00Ясно и безоблачно+22°C55 %729 мм1.3 м/с5 %
  • 26июля
    Пятница
    +15°
    +31°
    Облачно с прояснениями
    ВремяПогодаТемператураВлажностьДавлениеВетер, м/сВероятность осадков
    00:00Ясно и безоблачно+16°C70 %728 мм1.3 м/с5 %
    03:00Ясно и безоблачно+14°C79 %727 мм0.6 м/с5 %
    06:00Ясно и безоблачно+13°C88 %728 мм0.7 м/с5 %
    09:00Ясно и безоблачно+21°C65 %730 мм1.6 м/с5 %
    12:00Облачно с прояснениями+28°C44 %729 мм1.3 м/с4 %
    15:00Облачно с прояснениями+30°C35 %727 мм2.0 м/с5 %
    18:00Практически безоблачно+25°C52 %727 мм3.5 м/с5 %
    21:00Ясно и безоблачно+23°C66 %729 мм2.3 м/с10 %
Мы используем cookies
Соглашаюсь